sensor_id;sensor_type;location;lat;lon;timestamp;P1;durP1;ratioP1;P2;durP2;ratioP2
47089;SDS011;32840;52.516;13.294;2023-10-19T00:01:59;21.95;;;15.05;;
47089;SDS011;32840;52.516;13.294;2023-10-19T00:04:46;21.52;;;13.38;;
47089;SDS011;32840;52.516;13.294;2023-10-19T00:07:31;23.38;;;14.55;;
47089;SDS011;32840;52.516;13.294;2023-10-19T00:10:18;25.38;;;15.35;;
47089;SDS011;32840;52.516;13.294;2023-10-19T00:13:06;23.42;;;13.70;;
47089;SDS011;32840;52.516;13.294;2023-10-19T00:15:53;24.27;;;15.30;;
47089;SDS011;32840;52.516;13.294;2023-10-19T00:18:38;22.65;;;14.32;;
47089;SDS011;32840;52.516;13.294;2023-10-19T00:21:28;22.80;;;14.40;;
47089;SDS011;32840;52.516;13.294;2023-10-19T00:24:16;23.73;;;14.40;;
47089;SDS011;32840;52.516;13.294;2023-10-19T00:27:03;26.52;;;15.10;;
47089;SDS011;32840;52.516;13.294;2023-10-19T00:29:59;34.28;;;14.50;;
47089;SDS011;32840;52.516;13.294;2023-10-19T00:32:50;23.05;;;15.05;;
47089;SDS011;32840;52.516;13.294;2023-10-19T00:35:37;26.05;;;15.32;;
47089;SDS011;32840;52.516;13.294;2023-10-19T00:38:28;23.42;;;14.65;;
47089;SDS011;32840;52.516;13.294;2023-10-19T00:41:48;22.98;;;13.70;;
47089;SDS011;32840;52.516;13.294;2023-10-19T00:44:35;24.02;;;15.32;;
47089;SDS011;32840;52.516;13.294;2023-10-19T00:47:28;22.55;;;14.55;;
47089;SDS011;32840;52.516;13.294;2023-10-19T00:50:22;21.42;;;14.00;;
47089;SDS011;32840;52.516;13.294;2023-10-19T00:53:11;23.15;;;14.07;;
47089;SDS011;32840;52.516;13.294;2023-10-19T00:55:58;26.92;;;15.63;;
47089;SDS011;32840;52.516;13.294;2023-10-19T00:59:04;24.63;;;14.52;;
47089;SDS011;32840;52.516;13.294;2023-10-19T01:02:09;24.40;;;14.52;;
47089;SDS011;32840;52.516;13.294;2023-10-19T01:05:13;22.55;;;13.57;;
47089;SDS011;32840;52.516;13.294;2023-10-19T01:07:58;24.27;;;15.07;;
47089;SDS011;32840;52.516;13.294;2023-10-19T01:10:46;25.92;;;14.40;;
47089;SDS011;32840;52.516;13.294;2023-10-19T01:13:52;22.42;;;14.88;;
47089;SDS011;32840;52.516;13.294;2023-10-19T01:16:38;25.92;;;15.35;;
47089;SDS011;32840;52.516;13.294;2023-10-19T01:19:24;23.00;;;14.43;;
47089;SDS011;32840;52.516;13.294;2023-10-19T01:22:11;27.58;;;14.68;;
47089;SDS011;32840;52.516;13.294;2023-10-19T01:25:04;23.67;;;14.93;;
47089;SDS011;32840;52.516;13.294;2023-10-19T01:27:55;26.45;;;15.60;;
47089;SDS011;32840;52.516;13.294;2023-10-19T01:31:01;24.67;;;15.57;;
47089;SDS011;32840;52.516;13.294;2023-10-19T01:33:52;24.23;;;15.35;;
47089;SDS011;32840;52.516;13.294;2023-10-19T01:36:40;27.13;;;15.30;;
47089;SDS011;32840;52.516;13.294;2023-10-19T01:39:27;28.67;;;16.00;;
47089;SDS011;32840;52.516;13.294;2023-10-19T01:42:15;24.30;;;15.75;;
47089;SDS011;32840;52.516;13.294;2023-10-19T01:45:01;21.20;;;15.10;;
47089;SDS011;32840;52.516;13.294;2023-10-19T01:47:46;25.60;;;15.73;;
47089;SDS011;32840;52.516;13.294;2023-10-19T01:50:36;27.50;;;15.63;;
47089;SDS011;32840;52.516;13.294;2023-10-19T01:53:42;27.95;;;15.90;;
47089;SDS011;32840;52.516;13.294;2023-10-19T01:56:30;30.30;;;16.38;;
47089;SDS011;32840;52.516;13.294;2023-10-19T01:59:23;25.20;;;15.80;;
47089;SDS011;32840;52.516;13.294;2023-10-19T02:02:11;27.85;;;16.48;;
47089;SDS011;32840;52.516;13.294;2023-10-19T02:04:59;22.98;;;14.63;;
47089;SDS011;32840;52.516;13.294;2023-10-19T02:07:53;30.23;;;17.50;;
47089;SDS011;32840;52.516;13.294;2023-10-19T02:10:40;28.27;;;16.02;;
47089;SDS011;32840;52.516;13.294;2023-10-19T02:13:31;27.42;;;17.05;;
47089;SDS011;32840;52.516;13.294;2023-10-19T02:16:20;26.15;;;15.82;;
47089;SDS011;32840;52.516;13.294;2023-10-19T02:19:10;26.40;;;17.08;;
47089;SDS011;32840;52.516;13.294;2023-10-19T02:21:57;33.97;;;17.33;;
47089;SDS011;32840;52.516;13.294;2023-10-19T02:24:48;25.27;;;16.10;;
47089;SDS011;32840;52.516;13.294;2023-10-19T02:27:33;29.15;;;17.20;;
47089;SDS011;32840;52.516;13.294;2023-10-19T02:30:20;27.02;;;17.42;;
47089;SDS011;32840;52.516;13.294;2023-10-19T02:33:09;24.92;;;16.45;;
47089;SDS011;32840;52.516;13.294;2023-10-19T02:35:56;29.13;;;17.13;;
47089;SDS011;32840;52.516;13.294;2023-10-19T02:38:42;29.95;;;16.73;;
47089;SDS011;32840;52.516;13.294;2023-10-19T02:41:36;28.35;;;16.92;;
47089;SDS011;32840;52.516;13.294;2023-10-19T02:44:28;26.95;;;16.50;;
47089;SDS011;32840;52.516;13.294;2023-10-19T02:47:15;28.40;;;17.58;;
47089;SDS011;32840;52.516;13.294;2023-10-19T02:50:01;27.67;;;16.60;;
47089;SDS011;32840;52.516;13.294;2023-10-19T02:52:56;27.38;;;16.42;;
47089;SDS011;32840;52.516;13.294;2023-10-19T02:55:41;28.02;;;17.38;;
47089;SDS011;32840;52.516;13.294;2023-10-19T02:58:27;26.88;;;16.90;;
47089;SDS011;32840;52.516;13.294;2023-10-19T03:01:13;29.58;;;17.33;;
47089;SDS011;32840;52.516;13.294;2023-10-19T03:04:02;29.13;;;17.55;;
47089;SDS011;32840;52.516;13.294;2023-10-19T03:06:48;25.65;;;16.60;;
47089;SDS011;32840;52.516;13.294;2023-10-19T03:09:33;25.98;;;16.80;;
47089;SDS011;32840;52.516;13.294;2023-10-19T03:12:32;29.20;;;17.17;;
47089;SDS011;32840;52.516;13.294;2023-10-19T03:15:19;28.63;;;17.42;;
47089;SDS011;32840;52.516;13.294;2023-10-19T03:18:05;29.42;;;16.10;;
47089;SDS011;32840;52.516;13.294;2023-10-19T03:20:50;27.10;;;17.38;;
47089;SDS011;32840;52.516;13.294;2023-10-19T03:23:36;29.30;;;17.00;;
47089;SDS011;32840;52.516;13.294;2023-10-19T03:26:25;32.50;;;18.15;;
47089;SDS011;32840;52.516;13.294;2023-10-19T03:29:20;30.92;;;16.98;;
47089;SDS011;32840;52.516;13.294;2023-10-19T03:32:10;29.63;;;17.58;;
47089;SDS011;32840;52.516;13.294;2023-10-19T03:34:56;27.77;;;17.23;;
47089;SDS011;32840;52.516;13.294;2023-10-19T03:37:43;27.88;;;17.08;;
47089;SDS011;32840;52.516;13.294;2023-10-19T03:40:31;28.40;;;17.40;;
47089;SDS011;32840;52.516;13.294;2023-10-19T03:43:18;25.83;;;16.40;;
47089;SDS011;32840;52.516;13.294;2023-10-19T03:46:06;26.23;;;17.08;;
47089;SDS011;32840;52.516;13.294;2023-10-19T03:49:06;28.73;;;17.15;;
47089;SDS011;32840;52.516;13.294;2023-10-19T03:51:57;28.95;;;18.08;;
47089;SDS011;32840;52.516;13.294;2023-10-19T03:54:43;28.08;;;17.23;;
47089;SDS011;32840;52.516;13.294;2023-10-19T03:57:34;31.30;;;19.13;;
47089;SDS011;32840;52.516;13.294;2023-10-19T04:00:19;27.90;;;17.88;;
47089;SDS011;32840;52.516;13.294;2023-10-19T04:03:08;30.33;;;18.38;;
47089;SDS011;32840;52.516;13.294;2023-10-19T04:05:55;29.05;;;17.92;;
47089;SDS011;32840;52.516;13.294;2023-10-19T04:08:41;29.48;;;18.67;;
47089;SDS011;32840;52.516;13.294;2023-10-19T04:11:35;31.50;;;18.90;;
47089;SDS011;32840;52.516;13.294;2023-10-19T04:14:32;29.30;;;18.42;;
47089;SDS011;32840;52.516;13.294;2023-10-19T04:17:18;28.90;;;18.70;;
47089;SDS011;32840;52.516;13.294;2023-10-19T04:20:05;30.90;;;18.65;;
47089;SDS011;32840;52.516;13.294;2023-10-19T04:23:03;32.05;;;19.17;;
47089;SDS011;32840;52.516;13.294;2023-10-19T04:25:55;32.47;;;19.65;;
47089;SDS011;32840;52.516;13.294;2023-10-19T04:28:53;33.75;;;19.67;;
47089;SDS011;32840;52.516;13.294;2023-10-19T04:31:39;31.58;;;18.73;;
47089;SDS011;32840;52.516;13.294;2023-10-19T04:34:34;29.77;;;18.95;;
47089;SDS011;32840;52.516;13.294;2023-10-19T04:37:20;30.63;;;18.70;;
47089;SDS011;32840;52.516;13.294;2023-10-19T04:40:08;29.10;;;19.02;;
47089;SDS011;32840;52.516;13.294;2023-10-19T04:42:54;30.80;;;19.42;;
47089;SDS011;32840;52.516;13.294;2023-10-19T04:45:39;32.33;;;19.17;;
47089;SDS011;32840;52.516;13.294;2023-10-19T04:48:24;29.95;;;18.83;;
47089;SDS011;32840;52.516;13.294;2023-10-19T04:51:10;27.75;;;19.42;;
47089;SDS011;32840;52.516;13.294;2023-10-19T04:56:56;32.83;;;19.85;;
47089;SDS011;32840;52.516;13.294;2023-10-19T04:59:40;32.20;;;19.67;;
47089;SDS011;32840;52.516;13.294;2023-10-19T05:02:30;29.88;;;19.42;;
47089;SDS011;32840;52.516;13.294;2023-10-19T05:05:15;34.22;;;19.95;;
47089;SDS011;32840;52.516;13.294;2023-10-19T05:08:01;31.90;;;18.98;;
47089;SDS011;32840;52.516;13.294;2023-10-19T05:10:47;32.38;;;20.45;;
47089;SDS011;32840;52.516;13.294;2023-10-19T05:13:32;33.63;;;19.50;;
47089;SDS011;32840;52.516;13.294;2023-10-19T05:16:19;30.80;;;19.20;;
47089;SDS011;32840;52.516;13.294;2023-10-19T05:19:04;32.45;;;19.63;;
47089;SDS011;32840;52.516;13.294;2023-10-19T05:28:20;33.85;;;19.85;;
47089;SDS011;32840;52.516;13.294;2023-10-19T05:31:06;33.30;;;20.10;;
47089;SDS011;32840;52.516;13.294;2023-10-19T05:33:52;34.00;;;19.88;;
47089;SDS011;32840;52.516;13.294;2023-10-19T05:36:37;35.05;;;20.05;;
47089;SDS011;32840;52.516;13.294;2023-10-19T05:39:23;37.45;;;20.25;;
47089;SDS011;32840;52.516;13.294;2023-10-19T05:42:11;32.97;;;20.67;;
47089;SDS011;32840;52.516;13.294;2023-10-19T05:44:57;34.80;;;21.35;;
47089;SDS011;32840;52.516;13.294;2023-10-19T05:47:43;35.35;;;21.23;;
47089;SDS011;32840;52.516;13.294;2023-10-19T05:50:29;35.35;;;21.20;;
47089;SDS011;32840;52.516;13.294;2023-10-19T05:53:14;34.55;;;21.85;;
47089;SDS011;32840;52.516;13.294;2023-10-19T05:56:02;34.33;;;20.92;;
47089;SDS011;32840;52.516;13.294;2023-10-19T05:58:47;37.20;;;21.80;;
47089;SDS011;32840;52.516;13.294;2023-10-19T06:01:35;38.78;;;22.35;;
47089;SDS011;32840;52.516;13.294;2023-10-19T06:04:21;33.28;;;21.65;;
47089;SDS011;32840;52.516;13.294;2023-10-19T06:07:07;37.00;;;22.13;;
47089;SDS011;32840;52.516;13.294;2023-10-19T06:09:55;37.83;;;23.08;;
47089;SDS011;32840;52.516;13.294;2023-10-19T06:12:47;37.33;;;22.20;;
47089;SDS011;32840;52.516;13.294;2023-10-19T06:15:34;35.55;;;23.52;;
47089;SDS011;32840;52.516;13.294;2023-10-19T06:18:21;35.28;;;22.98;;
47089;SDS011;32840;52.516;13.294;2023-10-19T06:21:06;37.65;;;24.05;;
47089;SDS011;32840;52.516;13.294;2023-10-19T06:23:52;38.08;;;23.90;;
47089;SDS011;32840;52.516;13.294;2023-10-19T06:26:39;40.47;;;24.08;;
47089;SDS011;32840;52.516;13.294;2023-10-19T06:29:26;39.10;;;23.90;;
47089;SDS011;32840;52.516;13.294;2023-10-19T06:32:13;40.15;;;23.77;;
47089;SDS011;32840;52.516;13.294;2023-10-19T06:34:58;40.72;;;23.95;;
47089;SDS011;32840;52.516;13.294;2023-10-19T06:37:43;40.78;;;24.00;;
47089;SDS011;32840;52.516;13.294;2023-10-19T06:40:28;38.38;;;24.58;;
47089;SDS011;32840;52.516;13.294;2023-10-19T06:43:13;38.03;;;23.30;;
47089;SDS011;32840;52.516;13.294;2023-10-19T06:45:57;37.00;;;24.50;;
47089;SDS011;32840;52.516;13.294;2023-10-19T06:48:42;37.80;;;24.58;;
47089;SDS011;32840;52.516;13.294;2023-10-19T06:51:27;43.15;;;24.83;;
47089;SDS011;32840;52.516;13.294;2023-10-19T06:54:13;38.15;;;24.17;;
47089;SDS011;32840;52.516;13.294;2023-10-19T06:56:58;36.53;;;23.48;;
47089;SDS011;32840;52.516;13.294;2023-10-19T06:59:43;45.67;;;24.67;;
47089;SDS011;32840;52.516;13.294;2023-10-19T07:02:28;39.78;;;25.50;;
47089;SDS011;32840;52.516;13.294;2023-10-19T07:05:14;44.92;;;28.25;;
47089;SDS011;32840;52.516;13.294;2023-10-19T07:08:02;38.97;;;23.02;;
47089;SDS011;32840;52.516;13.294;2023-10-19T07:10:51;38.00;;;23.90;;
47089;SDS011;32840;52.516;13.294;2023-10-19T07:13:36;36.97;;;23.60;;
47089;SDS011;32840;52.516;13.294;2023-10-19T07:16:21;41.63;;;24.80;;
47089;SDS011;32840;52.516;13.294;2023-10-19T07:19:08;40.22;;;23.55;;
47089;SDS011;32840;52.516;13.294;2023-10-19T07:21:53;36.50;;;22.88;;
47089;SDS011;32840;52.516;13.294;2023-10-19T07:24:43;34.22;;;23.23;;
47089;SDS011;32840;52.516;13.294;2023-10-19T07:27:33;39.25;;;23.88;;
47089;SDS011;32840;52.516;13.294;2023-10-19T07:30:24;37.85;;;22.88;;
47089;SDS011;32840;52.516;13.294;2023-10-19T07:33:12;41.47;;;23.73;;
47089;SDS011;32840;52.516;13.294;2023-10-19T07:36:02;43.53;;;23.50;;
47089;SDS011;32840;52.516;13.294;2023-10-19T07:41:37;34.90;;;22.13;;
47089;SDS011;32840;52.516;13.294;2023-10-19T07:44:22;39.22;;;22.95;;
47089;SDS011;32840;52.516;13.294;2023-10-19T07:47:07;34.78;;;22.38;;
47089;SDS011;32840;52.516;13.294;2023-10-19T07:49:55;35.20;;;22.63;;
47089;SDS011;32840;52.516;13.294;2023-10-19T07:52:41;41.95;;;23.30;;
47089;SDS011;32840;52.516;13.294;2023-10-19T07:55:28;40.22;;;23.63;;
47089;SDS011;32840;52.516;13.294;2023-10-19T07:58:14;39.92;;;25.08;;
47089;SDS011;32840;52.516;13.294;2023-10-19T08:00:59;34.72;;;21.95;;
47089;SDS011;32840;52.516;13.294;2023-10-19T08:03:45;36.67;;;22.33;;
47089;SDS011;32840;52.516;13.294;2023-10-19T08:06:39;33.83;;;22.15;;
47089;SDS011;32840;52.516;13.294;2023-10-19T08:09:24;34.60;;;22.15;;
47089;SDS011;32840;52.516;13.294;2023-10-19T08:12:11;36.40;;;21.92;;
47089;SDS011;32840;52.516;13.294;2023-10-19T08:14:58;37.22;;;22.83;;
47089;SDS011;32840;52.516;13.294;2023-10-19T08:17:45;34.53;;;21.20;;
47089;SDS011;32840;52.516;13.294;2023-10-19T08:20:31;34.90;;;22.80;;
47089;SDS011;32840;52.516;13.294;2023-10-19T08:23:19;34.85;;;20.92;;
47089;SDS011;32840;52.516;13.294;2023-10-19T08:26:33;32.40;;;20.23;;
47089;SDS011;32840;52.516;13.294;2023-10-19T08:29:20;36.35;;;22.05;;
47089;SDS011;32840;52.516;13.294;2023-10-19T08:32:09;32.47;;;21.25;;
47089;SDS011;32840;52.516;13.294;2023-10-19T08:34:54;34.92;;;21.05;;
47089;SDS011;32840;52.516;13.294;2023-10-19T08:37:39;39.33;;;22.08;;
47089;SDS011;32840;52.516;13.294;2023-10-19T08:40:27;35.95;;;20.70;;
47089;SDS011;32840;52.516;13.294;2023-10-19T08:43:12;38.25;;;21.10;;
47089;SDS011;32840;52.516;13.294;2023-10-19T08:46:06;33.25;;;21.35;;
47089;SDS011;32840;52.516;13.294;2023-10-19T08:48:53;35.00;;;20.77;;
47089;SDS011;32840;52.516;13.294;2023-10-19T08:51:42;34.67;;;20.67;;
47089;SDS011;32840;52.516;13.294;2023-10-19T08:54:28;32.55;;;20.27;;
47089;SDS011;32840;52.516;13.294;2023-10-19T08:57:13;37.88;;;21.10;;
47089;SDS011;32840;52.516;13.294;2023-10-19T08:59:59;38.55;;;21.00;;
47089;SDS011;32840;52.516;13.294;2023-10-19T09:02:53;34.33;;;21.20;;
47089;SDS011;32840;52.516;13.294;2023-10-19T09:05:43;33.42;;;20.77;;
47089;SDS011;32840;52.516;13.294;2023-10-19T09:08:31;34.60;;;20.15;;
47089;SDS011;32840;52.516;13.294;2023-10-19T09:11:25;33.45;;;20.55;;
47089;SDS011;32840;52.516;13.294;2023-10-19T09:14:11;29.38;;;19.25;;
47089;SDS011;32840;52.516;13.294;2023-10-19T09:16:57;32.15;;;20.17;;
47089;SDS011;32840;52.516;13.294;2023-10-19T09:19:44;34.25;;;21.50;;
47089;SDS011;32840;52.516;13.294;2023-10-19T09:22:35;32.30;;;19.73;;
47089;SDS011;32840;52.516;13.294;2023-10-19T09:25:21;33.67;;;20.70;;
47089;SDS011;32840;52.516;13.294;2023-10-19T09:31:04;35.15;;;20.65;;
47089;SDS011;32840;52.516;13.294;2023-10-19T09:33:49;30.88;;;18.65;;
47089;SDS011;32840;52.516;13.294;2023-10-19T09:36:34;31.38;;;20.23;;
47089;SDS011;32840;52.516;13.294;2023-10-19T09:39:20;33.97;;;20.63;;
47089;SDS011;32840;52.516;13.294;2023-10-19T09:42:09;30.27;;;20.13;;
47089;SDS011;32840;52.516;13.294;2023-10-19T09:45:00;33.53;;;19.50;;
47089;SDS011;32840;52.516;13.294;2023-10-19T09:47:51;30.67;;;20.50;;
47089;SDS011;32840;52.516;13.294;2023-10-19T09:50:39;33.25;;;20.48;;
47089;SDS011;32840;52.516;13.294;2023-10-19T09:53:27;32.97;;;20.65;;
47089;SDS011;32840;52.516;13.294;2023-10-19T09:56:15;32.70;;;20.67;;
47089;SDS011;32840;52.516;13.294;2023-10-19T09:59:13;33.97;;;19.52;;
47089;SDS011;32840;52.516;13.294;2023-10-19T10:02:26;31.98;;;20.67;;
47089;SDS011;32840;52.516;13.294;2023-10-19T10:08:38;32.33;;;20.17;;
47089;SDS011;32840;52.516;13.294;2023-10-19T10:11:24;23.48;;;15.93;;
47089;SDS011;32840;52.516;13.294;2023-10-19T10:14:24;32.58;;;19.98;;
47089;SDS011;32840;52.516;13.294;2023-10-19T10:17:10;34.22;;;21.58;;
47089;SDS011;32840;52.516;13.294;2023-10-19T10:20:55;34.88;;;20.63;;
47089;SDS011;32840;52.516;13.294;2023-10-19T10:23:23;34.22;;;21.25;;
47089;SDS011;32840;52.516;13.294;2023-10-19T10:26:17;33.10;;;21.38;;
47089;SDS011;32840;52.516;13.294;2023-10-19T10:29:08;33.13;;;21.40;;
47089;SDS011;32840;52.516;13.294;2023-10-19T10:32:23;36.10;;;21.20;;
47089;SDS011;32840;52.516;13.294;2023-10-19T10:38:25;36.80;;;22.02;;
47089;SDS011;32840;52.516;13.294;2023-10-19T10:41:22;35.13;;;21.98;;
47089;SDS011;32840;52.516;13.294;2023-10-19T10:44:11;36.90;;;23.27;;
47089;SDS011;32840;52.516;13.294;2023-10-19T10:46:56;34.55;;;22.60;;
47089;SDS011;32840;52.516;13.294;2023-10-19T10:52:39;32.17;;;21.42;;
47089;SDS011;32840;52.516;13.294;2023-10-19T10:55:24;37.67;;;22.98;;
47089;SDS011;32840;52.516;13.294;2023-10-19T10:58:15;33.97;;;23.33;;
47089;SDS011;32840;52.516;13.294;2023-10-19T11:01:05;36.35;;;22.73;;
47089;SDS011;32840;52.516;13.294;2023-10-19T11:03:50;39.80;;;23.65;;
47089;SDS011;32840;52.516;13.294;2023-10-19T11:06:49;38.17;;;23.08;;
47089;SDS011;32840;52.516;13.294;2023-10-19T11:09:48;36.13;;;24.05;;
47089;SDS011;32840;52.516;13.294;2023-10-19T11:12:33;40.88;;;24.70;;
47089;SDS011;32840;52.516;13.294;2023-10-19T11:15:20;38.17;;;24.95;;
47089;SDS011;32840;52.516;13.294;2023-10-19T11:18:06;38.63;;;25.08;;
47089;SDS011;32840;52.516;13.294;2023-10-19T11:21:00;38.72;;;22.42;;
47089;SDS011;32840;52.516;13.294;2023-10-19T11:24:07;40.75;;;24.17;;
47089;SDS011;32840;52.516;13.294;2023-10-19T11:26:55;39.40;;;22.67;;
47089;SDS011;32840;52.516;13.294;2023-10-19T11:29:52;33.92;;;22.55;;
47089;SDS011;32840;52.516;13.294;2023-10-19T11:32:40;34.03;;;22.70;;
47089;SDS011;32840;52.516;13.294;2023-10-19T11:35:25;38.67;;;23.25;;
47089;SDS011;32840;52.516;13.294;2023-10-19T11:38:14;34.38;;;22.88;;
47089;SDS011;32840;52.516;13.294;2023-10-19T11:41:00;38.00;;;23.40;;
47089;SDS011;32840;52.516;13.294;2023-10-19T11:43:48;37.28;;;25.08;;
47089;SDS011;32840;52.516;13.294;2023-10-19T11:46:34;39.38;;;24.00;;
47089;SDS011;32840;52.516;13.294;2023-10-19T11:49:20;45.40;;;25.27;;
47089;SDS011;32840;52.516;13.294;2023-10-19T11:52:05;44.90;;;25.95;;
47089;SDS011;32840;52.516;13.294;2023-10-19T11:54:51;40.70;;;25.58;;
47089;SDS011;32840;52.516;13.294;2023-10-19T11:57:38;42.20;;;26.35;;
47089;SDS011;32840;52.516;13.294;2023-10-19T12:00:23;40.00;;;26.60;;
47089;SDS011;32840;52.516;13.294;2023-10-19T12:03:18;40.35;;;25.23;;
47089;SDS011;32840;52.516;13.294;2023-10-19T12:06:06;50.88;;;27.50;;
47089;SDS011;32840;52.516;13.294;2023-10-19T12:08:51;43.35;;;25.95;;
47089;SDS011;32840;52.516;13.294;2023-10-19T12:11:36;37.80;;;24.77;;
47089;SDS011;32840;52.516;13.294;2023-10-19T12:14:21;48.42;;;30.83;;
47089;SDS011;32840;52.516;13.294;2023-10-19T12:17:07;40.53;;;27.17;;
47089;SDS011;32840;52.516;13.294;2023-10-19T12:19:52;43.67;;;26.90;;
47089;SDS011;32840;52.516;13.294;2023-10-19T12:22:36;45.33;;;27.35;;
47089;SDS011;32840;52.516;13.294;2023-10-19T12:25:25;40.78;;;26.40;;
47089;SDS011;32840;52.516;13.294;2023-10-19T12:28:22;44.67;;;26.00;;
47089;SDS011;32840;52.516;13.294;2023-10-19T12:31:10;38.47;;;24.85;;
47089;SDS011;32840;52.516;13.294;2023-10-19T12:33:55;39.72;;;25.65;;
47089;SDS011;32840;52.516;13.294;2023-10-19T12:47:46;54.72;;;35.28;;
47089;SDS011;32840;52.516;13.294;2023-10-19T12:50:31;44.38;;;27.52;;
47089;SDS011;32840;52.516;13.294;2023-10-19T12:53:18;45.30;;;27.80;;
47089;SDS011;32840;52.516;13.294;2023-10-19T12:56:11;44.53;;;29.10;;
47089;SDS011;32840;52.516;13.294;2023-10-19T12:59:08;48.97;;;29.73;;
47089;SDS011;32840;52.516;13.294;2023-10-19T13:01:53;45.25;;;28.52;;
47089;SDS011;32840;52.516;13.294;2023-10-19T13:08:26;46.47;;;29.38;;
47089;SDS011;32840;52.516;13.294;2023-10-19T13:11:12;44.20;;;28.50;;
47089;SDS011;32840;52.516;13.294;2023-10-19T13:17:51;46.55;;;29.77;;
47089;SDS011;32840;52.516;13.294;2023-10-19T13:20:37;44.55;;;28.63;;
47089;SDS011;32840;52.516;13.294;2023-10-19T13:23:24;43.25;;;28.45;;
47089;SDS011;32840;52.516;13.294;2023-10-19T13:26:09;47.72;;;28.70;;
47089;SDS011;32840;52.516;13.294;2023-10-19T13:31:48;43.60;;;28.42;;
47089;SDS011;32840;52.516;13.294;2023-10-19T13:34:36;43.45;;;28.50;;
47089;SDS011;32840;52.516;13.294;2023-10-19T13:37:23;47.22;;;29.52;;
47089;SDS011;32840;52.516;13.294;2023-10-19T13:40:08;51.03;;;29.30;;
47089;SDS011;32840;52.516;13.294;2023-10-19T13:42:55;44.38;;;28.00;;
47089;SDS011;32840;52.516;13.294;2023-10-19T13:45:41;46.72;;;29.40;;
47089;SDS011;32840;52.516;13.294;2023-10-19T13:48:30;45.50;;;28.50;;
47089;SDS011;32840;52.516;13.294;2023-10-19T13:51:24;47.95;;;30.17;;
47089;SDS011;32840;52.516;13.294;2023-10-19T13:54:10;44.85;;;28.13;;
47089;SDS011;32840;52.516;13.294;2023-10-19T13:56:57;48.20;;;29.77;;
47089;SDS011;32840;52.516;13.294;2023-10-19T13:59:42;49.85;;;29.23;;
47089;SDS011;32840;52.516;13.294;2023-10-19T14:02:27;45.70;;;29.60;;
47089;SDS011;32840;52.516;13.294;2023-10-19T14:05:13;45.15;;;30.40;;
47089;SDS011;32840;52.516;13.294;2023-10-19T14:07:58;47.70;;;30.77;;
47089;SDS011;32840;52.516;13.294;2023-10-19T14:10:43;44.80;;;29.35;;
47089;SDS011;32840;52.516;13.294;2023-10-19T14:13:33;46.50;;;29.35;;
47089;SDS011;32840;52.516;13.294;2023-10-19T14:16:19;46.00;;;28.02;;
47089;SDS011;32840;52.516;13.294;2023-10-19T14:19:04;50.53;;;29.52;;
47089;SDS011;32840;52.516;13.294;2023-10-19T14:21:50;45.97;;;28.55;;
47089;SDS011;32840;52.516;13.294;2023-10-19T14:24:36;43.33;;;28.60;;
47089;SDS011;32840;52.516;13.294;2023-10-19T14:27:21;50.25;;;29.63;;
47089;SDS011;32840;52.516;13.294;2023-10-19T14:30:12;45.83;;;29.98;;
47089;SDS011;32840;52.516;13.294;2023-10-19T14:33:00;49.17;;;30.55;;
47089;SDS011;32840;52.516;13.294;2023-10-19T14:35:45;48.65;;;30.00;;
47089;SDS011;32840;52.516;13.294;2023-10-19T14:38:32;47.83;;;29.75;;
47089;SDS011;32840;52.516;13.294;2023-10-19T14:41:18;47.08;;;29.08;;
47089;SDS011;32840;52.516;13.294;2023-10-19T14:47:49;51.17;;;30.08;;
47089;SDS011;32840;52.516;13.294;2023-10-19T14:50:38;50.13;;;30.27;;
47089;SDS011;32840;52.516;13.294;2023-10-19T14:53:23;53.47;;;31.55;;
47089;SDS011;32840;52.516;13.294;2023-10-19T14:56:09;52.47;;;30.83;;
47089;SDS011;32840;52.516;13.294;2023-10-19T14:58:56;48.53;;;31.23;;
47089;SDS011;32840;52.516;13.294;2023-10-19T15:01:43;49.63;;;31.35;;
47089;SDS011;32840;52.516;13.294;2023-10-19T15:04:28;46.67;;;29.55;;
47089;SDS011;32840;52.516;13.294;2023-10-19T15:07:14;52.13;;;31.35;;
47089;SDS011;32840;52.516;13.294;2023-10-19T15:09:59;49.50;;;31.50;;
47089;SDS011;32840;52.516;13.294;2023-10-19T15:12:46;50.38;;;31.98;;
47089;SDS011;32840;52.516;13.294;2023-10-19T15:15:31;51.22;;;30.70;;
47089;SDS011;32840;52.516;13.294;2023-10-19T15:18:17;53.17;;;32.05;;
47089;SDS011;32840;52.516;13.294;2023-10-19T15:21:06;52.85;;;33.40;;
47089;SDS011;32840;52.516;13.294;2023-10-19T15:23:52;52.00;;;33.92;;
47089;SDS011;32840;52.516;13.294;2023-10-19T15:26:39;55.92;;;33.53;;
47089;SDS011;32840;52.516;13.294;2023-10-19T15:29:24;54.97;;;33.17;;
47089;SDS011;32840;52.516;13.294;2023-10-19T15:32:13;54.50;;;32.75;;
47089;SDS011;32840;52.516;13.294;2023-10-19T15:34:58;54.97;;;32.05;;
47089;SDS011;32840;52.516;13.294;2023-10-19T15:37:44;54.33;;;32.78;;
47089;SDS011;32840;52.516;13.294;2023-10-19T15:40:36;53.85;;;32.70;;
47089;SDS011;32840;52.516;13.294;2023-10-19T15:43:25;52.53;;;32.05;;
47089;SDS011;32840;52.516;13.294;2023-10-19T15:46:11;52.58;;;32.33;;
47089;SDS011;32840;52.516;13.294;2023-10-19T15:48:58;49.60;;;30.73;;
47089;SDS011;32840;52.516;13.294;2023-10-19T15:51:43;53.22;;;33.08;;
47089;SDS011;32840;52.516;13.294;2023-10-19T15:54:31;52.63;;;33.58;;
47089;SDS011;32840;52.516;13.294;2023-10-19T15:57:20;51.08;;;30.58;;
47089;SDS011;32840;52.516;13.294;2023-10-19T16:00:07;53.33;;;31.90;;
47089;SDS011;32840;52.516;13.294;2023-10-19T16:02:57;50.75;;;31.55;;
47089;SDS011;32840;52.516;13.294;2023-10-19T16:05:43;54.10;;;32.10;;
47089;SDS011;32840;52.516;13.294;2023-10-19T16:08:27;48.75;;;31.88;;
47089;SDS011;32840;52.516;13.294;2023-10-19T16:11:13;48.80;;;31.13;;
47089;SDS011;32840;52.516;13.294;2023-10-19T16:13:58;53.25;;;30.85;;
47089;SDS011;32840;52.516;13.294;2023-10-19T16:16:43;47.33;;;30.58;;
47089;SDS011;32840;52.516;13.294;2023-10-19T16:19:31;49.70;;;31.02;;
47089;SDS011;32840;52.516;13.294;2023-10-19T16:22:16;51.63;;;31.88;;
47089;SDS011;32840;52.516;13.294;2023-10-19T16:25:02;53.10;;;31.80;;
47089;SDS011;32840;52.516;13.294;2023-10-19T16:27:48;53.08;;;32.78;;
47089;SDS011;32840;52.516;13.294;2023-10-19T16:30:33;52.63;;;32.88;;
47089;SDS011;32840;52.516;13.294;2023-10-19T16:33:19;50.22;;;32.25;;
47089;SDS011;32840;52.516;13.294;2023-10-19T16:36:04;52.00;;;31.10;;
47089;SDS011;32840;52.516;13.294;2023-10-19T16:38:48;51.65;;;31.95;;
47089;SDS011;32840;52.516;13.294;2023-10-19T16:41:37;50.10;;;32.10;;
47089;SDS011;32840;52.516;13.294;2023-10-19T16:44:21;53.90;;;31.48;;
47089;SDS011;32840;52.516;13.294;2023-10-19T16:47:07;51.63;;;30.45;;
47089;SDS011;32840;52.516;13.294;2023-10-19T16:49:54;50.78;;;30.60;;
47089;SDS011;32840;52.516;13.294;2023-10-19T16:52:39;45.45;;;30.02;;
47089;SDS011;32840;52.516;13.294;2023-10-19T16:55:28;49.00;;;30.48;;
47089;SDS011;32840;52.516;13.294;2023-10-19T16:58:12;51.97;;;31.27;;
47089;SDS011;32840;52.516;13.294;2023-10-19T17:00:58;50.42;;;31.05;;